This is the latest recevied weather packets stored in our database for station/object W1HS. If no packets are shown the sender has not sent any weather packets the latest 10 day(s).
| Time | Temp. | Humidity | Pressure | Rain* | Wind** | Luminosity | Snow |
|---|---|---|---|---|---|---|---|
| 1777511658 | 11.67° C | 73% | 991.1 hPa | 0 mm | - | 0 W/m² | - |
| 1777511058 | 11.67° C | 72% | 991.1 hPa | 0 mm | - | 0 W/m² | - |
| 1777510548 | 12.22° C | 71% | 991.3 hPa | 0 mm | - | 0 W/m² | - |
| 1777509858 | 12.22° C | 70% | 991.2 hPa | 0 mm | - | 0 W/m² | - |
| 1777509258 | 12.78° C | 69% | 991 hPa | 0 mm | - | 0 W/m² | - |
| 1777508658 | 12.78° C | 67% | 991.1 hPa | 0 mm | - | 0 W/m² | - |
| 1777508058 | 12.78° C | 65% | 991.2 hPa | 0 mm | - | 0 W/m² | - |
| 1777507458 | 13.33° C | 63% | 991.1 hPa | 0 mm | - | 0 W/m² | - |
| 1777506858 | 13.33° C | 59% | 991.1 hPa | 0 mm | - | 0 W/m² | - |
| 1777502058 | 15.56° C | 51% | 991.1 hPa | 0 mm | - | 69 W/m² | - |
| 1777500258 | 16.11° C | 50% | 991.6 hPa | 0 mm | - | 116 W/m² | - |
| 1777499660 | 16.67° C | 50% | 991.8 hPa | 0 mm | - | 142 W/m² | - |
| 1777499060 | 16.67° C | 51% | 991.6 hPa | 0 mm | - | 199 W/m² | - |
| 1777498460 | 17.22° C | 50% | 991.9 hPa | 0 mm | - | 131 W/m² | - |
| 1777497860 | 17.22° C | 50% | 991.7 hPa | 0 mm | - | 374 W/m² | - |
| 1777496667 | 17.22° C | 50% | 991.7 hPa | 0 mm | - | 322 W/m² | - |
| 1777496060 | 17.78° C | 49% | 991.8 hPa | 0 mm | - | 353 W/m² | - |
| 1777495460 | 17.78° C | 49% | 991.8 hPa | 0 mm | - | 292 W/m² | - |
| 1777494860 | 17.78° C | 50% | 991.8 hPa | 0 mm | - | 341 W/m² | - |
| 1777494260 | 17.78° C | 50% | 991.8 hPa | 0 mm | - | 469 W/m² | - |
| 1777491260 | 18.33° C | 48% | 992.5 hPa | 0 mm | - | 561 W/m² | - |
| 1777490659 | 18.33° C | 47% | 992.6 hPa | 0 mm | - | 647 W/m² | - |
| 1777490060 | 18.33° C | 47% | 992.7 hPa | 0 mm | - | 682 W/m² | - |
| 1777489460 | 18.33° C | 47% | 993 hPa | 0 mm | - | 612 W/m² | - |
| 1777488860 | 18.89° C | 47% | 992.9 hPa | 0 mm | - | 362 W/m² | - |
* Rain latest hour (hover to see other rain measurements)
** Current wind speed in m/s (hover to see current wind gust speed)